Terminal Aerodrome Forecast
Issued by NWS Kansas City/Pleasant Hill, MO

Home | Current Version | Previous Version | Text Only | Print | Product List | Glossary On
Versions: 1 2 3 4 5 6 7 8 9 10 11 12 13 14 15 16 17 18 19 20 21 22 23 24 25 26 27
000
FTUS43 KEAX 261139 AAA
TAFMCI
TAF AMD
KMCI 261139Z 2612/2712 13012KT P6SM VCTS BKN020CB
      TEMPO 2613/2616 4SM TSRA BKN015CB
     FM261700 15012KT P6SM BKN040
     FM262300 14010KT P6SM VCTS BKN030CB
     FM270100 16012KT 4SM TSRA BKN025CB
     FM270900 12013KT P6SM VCTS BKN035CB=

USA.gov is the U.S. government's official web portal to all federal, state and local government web resources and services.